createdAt,value
2019-05-07T00:01:23.078Z,6.20
2019-05-07T00:03:52.845Z,6.50
2019-05-07T00:06:23.048Z,5.83
2019-05-07T00:08:52.826Z,6.40
2019-05-07T00:11:22.409Z,6.33
2019-05-07T00:13:52.357Z,6.30
2019-05-07T00:16:22.400Z,6.30
2019-05-07T00:18:52.542Z,7.07
2019-05-07T00:21:23.368Z,5.77
2019-05-07T00:23:53.250Z,5.80
2019-05-07T00:26:22.714Z,6.03
2019-05-07T00:28:52.797Z,5.90
2019-05-07T00:31:23.231Z,5.27
2019-05-07T00:33:52.766Z,5.33
2019-05-07T00:36:41.945Z,5.67
2019-05-07T00:39:29.606Z,4.93
2019-05-07T00:42:09.376Z,4.93
2019-05-07T00:44:56.399Z,5.20
2019-05-07T00:47:25.658Z,5.27
2019-05-07T00:49:56.974Z,4.90
2019-05-07T00:52:26.249Z,4.77
2019-05-07T00:54:55.495Z,4.80
2019-05-07T00:57:24.778Z,4.60
2019-05-07T00:59:54.022Z,5.23
2019-05-07T01:02:23.690Z,5.13
2019-05-07T01:04:53.280Z,4.83
2019-05-07T01:07:23.146Z,4.53
2019-05-07T01:09:52.624Z,4.90
2019-05-07T01:12:22.363Z,4.50
2019-05-07T01:14:52.917Z,4.80
2019-05-07T01:17:22.796Z,4.33
2019-05-07T01:19:53.289Z,5.00
2019-05-07T01:22:22.781Z,4.73
2019-05-07T01:24:52.869Z,5.20
2019-05-07T01:27:22.747Z,4.97
2019-05-07T01:29:52.826Z,5.40
2019-05-07T01:32:28.105Z,5.00
2019-05-07T01:35:02.510Z,4.83
2019-05-07T01:37:32.586Z,4.90
2019-05-07T01:40:03.053Z,4.70
2019-05-07T01:42:33.122Z,5.00
2019-05-07T01:45:03.897Z,4.90
2019-05-07T01:47:33.292Z,4.33
2019-05-07T01:50:03.148Z,4.80
2019-05-07T01:52:33.173Z,5.00
2019-05-07T01:55:03.367Z,5.23
2019-05-07T01:57:32.898Z,4.87
2019-05-07T02:00:02.743Z,5.33
2019-05-07T02:02:39.325Z,5.20
2019-05-07T02:05:25.735Z,4.67
2019-05-07T02:07:58.750Z,4.40
2019-05-07T02:10:58.867Z,4.77
2019-05-07T02:13:28.139Z,4.90
2019-05-07T02:16:01.013Z,5.23
2019-05-07T02:18:28.481Z,5.40
2019-05-07T02:20:57.810Z,5.33
2019-05-07T02:23:27.067Z,5.40
2019-05-07T02:25:56.346Z,5.50
2019-05-07T02:28:25.609Z,6.13
2019-05-07T02:30:54.865Z,6.30
2019-05-07T02:33:24.190Z,5.67
2019-05-07T02:35:53.659Z,5.00
2019-05-07T02:38:35.290Z,4.97
2019-05-07T02:41:09.880Z,4.77
2019-05-07T02:43:39.202Z,4.63
2019-05-07T02:46:31.641Z,4.47
2019-05-07T02:49:06.743Z,4.33
2019-05-07T02:51:43.557Z,4.67
2019-05-07T02:54:26.694Z,4.33
2019-05-07T02:56:55.953Z,5.23
2019-05-07T02:59:25.251Z,4.70
2019-05-07T03:01:54.607Z,4.60
2019-05-07T03:04:24.949Z,5.23
2019-05-07T03:06:54.722Z,5.30
2019-05-07T03:09:24.052Z,5.67
2019-05-07T03:11:53.411Z,5.20
2019-05-07T03:14:23.314Z,5.13
2019-05-07T03:16:53.783Z,5.10
2019-05-07T03:19:24.416Z,5.90
2019-05-07T03:21:54.672Z,5.77
2019-05-07T03:24:44.166Z,5.90
2019-05-07T03:27:14.394Z,5.53
2019-05-07T03:29:48.324Z,6.33
2019-05-07T03:32:37.750Z,6.40
2019-05-07T03:35:29.226Z,6.87
2019-05-07T03:37:58.697Z,6.80
2019-05-07T03:40:28.957Z,7.10
2019-05-07T03:43:01.595Z,7.37
2019-05-07T03:45:53.724Z,6.87
2019-05-07T03:48:23.955Z,7.10
2019-05-07T03:50:53.520Z,7.20
2019-05-07T03:53:23.412Z,7.97
2019-05-07T03:55:53.981Z,6.90
2019-05-07T03:58:24.028Z,7.43
2019-05-07T04:00:53.859Z,8.03
2019-05-07T04:03:24.818Z,8.07
2019-05-07T04:05:54.338Z,7.97
2019-05-07T04:08:24.022Z,7.70
2019-05-07T04:10:54.078Z,7.50
2019-05-07T04:13:24.363Z,8.10
2019-05-07T04:15:53.987Z,7.90
2019-05-07T04:18:23.940Z,7.90
2019-05-07T04:20:53.966Z,8.30
2019-05-07T04:23:23.784Z,8.87
2019-05-07T04:26:08.859Z,9.10
2019-05-07T04:29:05.574Z,8.83
2019-05-07T04:31:42.977Z,9.30
2019-05-07T04:34:19.409Z,9.30
2019-05-07T04:36:53.181Z,8.73
2019-05-07T04:39:23.152Z,10.00
2019-05-07T04:41:53.063Z,9.63
2019-05-07T04:44:23.474Z,9.93
2019-05-07T04:46:53.475Z,10.20
2019-05-07T04:49:23.870Z,9.60
2019-05-07T04:52:04.404Z,9.37
2019-05-07T04:54:33.760Z,9.90
2019-05-07T04:57:03.814Z,8.53
2019-05-07T04:59:33.319Z,8.23
2019-05-07T05:02:13.276Z,7.40
2019-05-07T05:04:43.660Z,7.77
2019-05-07T05:07:13.397Z,8.40
2019-05-07T05:09:42.860Z,7.37
2019-05-07T05:12:13.138Z,7.07
2019-05-07T05:14:43.635Z,6.93
2019-05-07T05:17:13.305Z,7.80
2019-05-07T05:19:43.907Z,8.03
2019-05-07T05:22:35.269Z,7.50
2019-05-07T05:25:12.137Z,7.37
2019-05-07T05:27:42.975Z,8.17
2019-05-07T05:30:15.706Z,6.60
2019-05-07T05:32:44.967Z,6.73
2019-05-07T05:35:14.234Z,6.07
2019-05-07T05:37:43.521Z,6.03
2019-05-07T05:40:13.108Z,6.23
2019-05-07T05:42:48.242Z,5.93
2019-05-07T05:45:35.314Z,5.80
2019-05-07T05:48:08.236Z,5.13
2019-05-07T05:50:53.573Z,6.00
2019-05-07T05:53:32.789Z,5.63
2019-05-07T05:56:05.653Z,5.97
2019-05-07T05:58:43.702Z,5.40
2019-05-07T06:01:32.113Z,5.67
2019-05-07T06:04:12.895Z,5.60
2019-05-07T06:07:10.521Z,6.00
2019-05-07T06:09:56.066Z,5.63
2019-05-07T06:12:47.402Z,5.63
2019-05-07T06:15:27.076Z,6.43
2019-05-07T06:18:20.376Z,6.37
2019-05-07T06:20:57.565Z,6.47
2019-05-07T06:23:44.317Z,5.90
2019-05-07T06:26:13.627Z,6.20
2019-05-07T06:28:42.889Z,5.40
2019-05-07T06:31:12.698Z,5.57
2019-05-07T06:33:42.933Z,6.33
2019-05-07T06:36:12.641Z,5.30
2019-05-07T06:39:01.951Z,5.37
2019-05-07T06:41:49.249Z,5.10
2019-05-07T06:44:22.415Z,4.97
2019-05-07T06:46:52.649Z,5.90
2019-05-07T06:49:22.362Z,6.60
2019-05-07T06:51:52.880Z,6.37
2019-05-07T06:54:22.689Z,5.50
2019-05-07T06:56:52.520Z,6.90
2019-05-07T06:59:34.787Z,7.27
2019-05-07T07:02:26.988Z,8.20
2019-05-07T07:05:07.585Z,8.07
2019-05-07T07:07:50.102Z,8.63
2019-05-07T07:10:42.649Z,8.13
2019-05-07T07:13:12.085Z,6.93
2019-05-07T07:15:42.723Z,6.70
2019-05-07T07:18:12.315Z,6.10
2019-05-07T07:20:43.019Z,7.03
2019-05-07T07:23:12.408Z,7.10
2019-05-07T07:25:42.981Z,6.40
2019-05-07T07:28:12.498Z,5.43
2019-05-07T07:31:10.320Z,6.50
2019-05-07T07:33:43.684Z,6.13
2019-05-07T07:36:12.826Z,6.03
2019-05-07T07:38:42.173Z,6.30
2019-05-07T07:41:35.310Z,5.67
2019-05-07T07:44:05.053Z,4.80
2019-05-07T07:46:34.314Z,5.00
2019-05-07T07:49:10.737Z,5.57
2019-05-07T07:51:41.462Z,5.03
2019-05-07T07:54:05.809Z,4.50
2019-05-07T07:56:56.144Z,4.87
2019-05-07T07:59:42.685Z,4.33
2019-05-07T08:02:42.427Z,4.50
2019-05-07T08:05:12.477Z,4.40
2019-05-07T08:07:42.562Z,4.57
2019-05-07T08:10:13.433Z,4.30
2019-05-07T08:12:42.792Z,4.70
2019-05-07T08:15:18.145Z,4.10
2019-05-07T08:17:43.453Z,4.10
2019-05-07T08:20:13.431Z,3.50
2019-05-07T08:22:42.698Z,3.10
2019-05-07T08:25:12.569Z,4.10
2019-05-07T08:27:42.152Z,4.10
2019-05-07T08:30:15.679Z,4.70
2019-05-07T08:32:53.035Z,4.23
2019-05-07T08:35:43.979Z,4.30
2019-05-07T08:38:13.255Z,3.90
2019-05-07T08:40:42.514Z,3.72
2019-05-07T08:43:12.588Z,3.30
2019-05-07T08:46:02.560Z,3.35
2019-05-07T08:48:35.829Z,3.58
2019-05-07T08:51:05.122Z,3.62
2019-05-07T08:53:34.461Z,4.87
2019-05-07T08:56:03.793Z,3.47
2019-05-07T08:58:33.069Z,4.08
2019-05-07T09:01:03.059Z,3.80
2019-05-07T09:03:44.686Z,3.60
2019-05-07T09:06:15.467Z,4.00
2019-05-07T09:08:44.722Z,3.40
2019-05-07T09:11:14.004Z,3.50
2019-05-07T09:13:43.345Z,3.58
2019-05-07T09:16:13.065Z,3.02
2019-05-07T09:18:42.652Z,2.92
2019-05-07T09:21:12.572Z,3.25
2019-05-07T09:23:42.561Z,2.80
2019-05-07T09:26:13.794Z,3.20
2019-05-07T09:28:52.911Z,2.85
2019-05-07T09:31:29.338Z,3.20
2019-05-07T09:33:58.941Z,3.25
2019-05-07T09:36:37.533Z,2.85
2019-05-07T09:39:07.225Z,2.77
2019-05-07T09:41:36.478Z,2.70
2019-05-07T09:44:05.750Z,2.85
2019-05-07T09:46:35.037Z,3.70
2019-05-07T09:49:04.499Z,3.05
2019-05-07T09:51:33.826Z,3.45
2019-05-07T09:54:03.195Z,3.60
2019-05-07T09:56:32.474Z,3.80
2019-05-07T09:59:02.195Z,4.07
2019-05-07T10:01:32.031Z,3.40
2019-05-07T10:04:02.623Z,3.33
2019-05-07T10:06:32.221Z,3.10
2019-05-07T10:09:02.855Z,3.73
2019-05-07T10:11:41.314Z,3.70
2019-05-07T10:14:12.441Z,4.00
2019-05-07T10:16:52.407Z,4.40
2019-05-07T10:19:22.295Z,4.03
2019-05-07T10:21:52.951Z,4.40
2019-05-07T10:24:22.368Z,4.73
2019-05-07T10:26:53.073Z,3.73
2019-05-07T10:29:23.373Z,3.80
2019-05-07T10:31:57.637Z,4.60
2019-05-07T10:34:26.945Z,5.80
2019-05-07T10:36:56.299Z,4.50
2019-05-07T10:39:25.574Z,4.40
2019-05-07T10:41:57.734Z,4.60
2019-05-07T10:44:32.023Z,4.33
2019-05-07T10:47:19.119Z,4.53
2019-05-07T10:50:07.338Z,4.20
2019-05-07T10:52:36.661Z,4.70
2019-05-07T10:55:06.145Z,5.13
2019-05-07T10:57:35.407Z,4.63
2019-05-07T11:00:05.269Z,4.73
2019-05-07T11:02:34.627Z,4.50
2019-05-07T11:05:03.907Z,4.30
2019-05-07T11:07:33.254Z,4.90
2019-05-07T11:10:02.495Z,4.90
2019-05-07T11:12:32.035Z,4.47
2019-05-07T11:15:02.197Z,4.57
2019-05-07T11:17:52.126Z,4.67
2019-05-07T11:20:22.611Z,5.33
2019-05-07T11:22:52.334Z,5.10
2019-05-07T11:25:22.547Z,5.63
2019-05-07T11:27:52.511Z,4.30
2019-05-07T11:30:22.781Z,4.00
2019-05-07T11:32:52.458Z,4.70
2019-05-07T11:35:22.936Z,3.73
2019-05-07T11:37:52.593Z,4.27
2019-05-07T11:40:22.873Z,5.10
2019-05-07T11:43:17.083Z,4.40
2019-05-07T11:45:54.480Z,4.93
2019-05-07T11:48:36.329Z,4.13
2019-05-07T11:51:12.298Z,4.03
2019-05-07T11:54:02.082Z,3.87
2019-05-07T11:56:32.846Z,4.10
2019-05-07T11:59:02.671Z,3.53
2019-05-07T12:01:43.984Z,4.20
2019-05-07T12:04:03.481Z,4.20
2019-05-07T12:06:32.934Z,4.30
2019-05-07T12:09:03.034Z,4.00
2019-05-07T12:11:32.570Z,4.50
2019-05-07T12:14:02.159Z,4.20
2019-05-07T12:16:32.027Z,4.07
2019-05-07T12:19:02.287Z,4.10
2019-05-07T12:21:32.013Z,3.80
2019-05-07T12:24:02.121Z,4.60
2019-05-07T12:26:33.622Z,4.27
2019-05-07T12:29:03.024Z,4.30
2019-05-07T12:31:52.368Z,3.40
2019-05-07T12:34:29.248Z,4.03
2019-05-07T12:36:58.528Z,3.40
2019-05-07T12:39:27.988Z,3.63
2019-05-07T12:41:57.274Z,3.10
2019-05-07T12:44:26.551Z,3.40
2019-05-07T12:46:55.834Z,3.70
2019-05-07T12:49:25.309Z,4.33
2019-05-07T12:52:13.570Z,5.50
2019-05-07T12:55:03.240Z,4.53
2019-05-07T12:57:32.849Z,3.90
2019-05-07T13:00:19.497Z,3.90
2019-05-07T13:03:07.720Z,5.20
2019-05-07T13:05:37.035Z,4.83
2019-05-07T13:08:06.609Z,4.23
2019-05-07T13:10:35.987Z,4.20
2019-05-07T13:13:05.252Z,4.93
2019-05-07T13:15:34.501Z,4.10
2019-05-07T13:18:03.790Z,4.57
2019-05-07T13:20:33.170Z,3.87
2019-05-07T13:23:05.489Z,3.50
2019-05-07T13:25:34.847Z,3.63
2019-05-07T13:28:04.102Z,3.67
2019-05-07T13:30:33.382Z,3.30
2019-05-07T13:33:04.642Z,3.53
2019-05-07T13:35:34.922Z,3.77
2019-05-07T13:38:23.891Z,3.90
2019-05-07T13:41:22.777Z,3.67
2019-05-07T13:44:23.147Z,3.87
2019-05-07T13:47:12.552Z,4.30
2019-05-07T13:49:42.793Z,5.07
2019-05-07T13:52:12.165Z,4.10
2019-05-07T13:54:41.965Z,5.50
2019-05-07T13:57:11.999Z,4.83
2019-05-07T13:59:42.685Z,5.03
2019-05-07T14:02:15.634Z,4.20
2019-05-07T14:04:45.412Z,3.83
2019-05-07T14:07:15.622Z,4.20
2019-05-07T14:09:45.114Z,4.80
2019-05-07T14:12:14.377Z,6.40
2019-05-07T14:14:43.698Z,5.97
2019-05-07T14:17:12.958Z,4.73
2019-05-07T14:19:42.445Z,4.73
2019-05-07T14:22:16.326Z,6.73
2019-05-07T14:24:42.781Z,6.60
2019-05-07T14:27:11.981Z,5.20
2019-05-07T14:29:42.419Z,4.10
2019-05-07T14:32:21.049Z,5.80
2019-05-07T14:35:24.377Z,5.17
2019-05-07T14:37:57.726Z,5.00
2019-05-07T14:40:27.069Z,4.47
2019-05-07T14:43:05.324Z,4.50
2019-05-07T14:45:34.781Z,4.63
2019-05-07T14:48:04.035Z,4.47
2019-05-07T14:50:33.339Z,4.70
2019-05-07T14:53:05.692Z,4.43
2019-05-07T14:55:35.100Z,4.37
2019-05-07T14:58:04.374Z,4.23
2019-05-07T15:00:35.278Z,4.30
2019-05-07T15:03:04.964Z,4.63
2019-05-07T15:05:34.434Z,4.30
2019-05-07T15:08:10.655Z,3.90
2019-05-07T15:10:34.794Z,4.03
2019-05-07T15:13:04.057Z,4.27
2019-05-07T15:15:33.323Z,4.00
2019-05-07T15:18:18.266Z,4.23
2019-05-07T15:20:47.539Z,3.60
2019-05-07T15:23:27.536Z,4.10
2019-05-07T15:25:57.558Z,3.97
2019-05-07T15:28:27.649Z,4.47
2019-05-07T15:31:12.759Z,5.03
2019-05-07T15:33:42.113Z,4.80
2019-05-07T15:36:11.988Z,4.90
2019-05-07T15:38:42.915Z,4.70
2019-05-07T15:41:12.733Z,5.27
2019-05-07T15:43:45.557Z,5.10
2019-05-07T15:46:13.158Z,4.63
2019-05-07T15:48:42.426Z,4.77
2019-05-07T15:51:11.985Z,4.70
2019-05-07T15:54:00.437Z,5.87
2019-05-07T15:56:29.769Z,4.43
2019-05-07T15:58:59.026Z,4.13
2019-05-07T16:01:28.358Z,4.47
2019-05-07T16:03:57.614Z,4.90
2019-05-07T16:06:26.937Z,4.57
2019-05-07T16:08:59.665Z,4.03
2019-05-07T16:11:29.036Z,4.20
2019-05-07T16:14:26.829Z,4.50
2019-05-07T16:17:09.769Z,4.33
2019-05-07T16:19:39.059Z,4.87
2019-05-07T16:22:12.791Z,4.70
2019-05-07T16:24:42.201Z,5.40
2019-05-07T16:27:12.106Z,4.87
2019-05-07T16:29:42.121Z,5.07
2019-05-07T16:32:11.583Z,4.43
2019-05-07T16:34:42.733Z,4.40
2019-05-07T16:37:12.346Z,4.90
2019-05-07T16:39:42.226Z,5.10
2019-05-07T16:42:11.680Z,4.80
2019-05-07T16:44:41.746Z,4.80
2019-05-07T16:47:12.205Z,4.60
2019-05-07T16:49:42.498Z,4.97
2019-05-07T16:52:12.137Z,5.10
2019-05-07T16:54:44.939Z,5.50
2019-05-07T16:57:43.799Z,5.80
2019-05-07T17:00:19.061Z,6.33
2019-05-07T17:02:51.574Z,5.87
2019-05-07T17:05:22.707Z,6.93
2019-05-07T17:07:56.906Z,7.07
2019-05-07T17:10:26.230Z,6.77
2019-05-07T17:12:55.485Z,7.83
2019-05-07T17:15:24.767Z,7.20
2019-05-07T17:17:59.325Z,7.73
2019-05-07T17:20:29.185Z,7.03
2019-05-07T17:22:58.442Z,7.83
2019-05-07T17:25:39.862Z,6.73
2019-05-07T17:28:09.555Z,6.33
2019-05-07T17:30:38.827Z,5.83
2019-05-07T17:33:08.426Z,6.00
2019-05-07T17:35:37.717Z,5.43
2019-05-07T17:38:09.781Z,5.07
2019-05-07T17:40:37.967Z,5.63
2019-05-07T17:43:07.221Z,5.90
2019-05-07T17:45:36.518Z,6.70
2019-05-07T17:48:05.945Z,5.87
2019-05-07T17:50:42.686Z,5.77
2019-05-07T17:53:12.120Z,6.13
2019-05-07T17:55:42.321Z,6.70
2019-05-07T17:58:12.867Z,6.00
2019-05-07T18:00:43.180Z,6.87
2019-05-07T18:03:32.779Z,7.30
2019-05-07T18:06:02.698Z,8.63
2019-05-07T18:08:32.695Z,7.87
2019-05-07T18:11:02.624Z,9.43
2019-05-07T18:13:33.242Z,10.83
2019-05-07T18:16:12.182Z,11.93
2019-05-07T18:18:43.238Z,12.30
2019-05-07T18:21:12.741Z,12.47
2019-05-07T18:23:42.070Z,11.17
2019-05-07T18:26:20.606Z,11.90
2019-05-07T18:28:42.345Z,10.07
2019-05-07T18:31:12.637Z,8.93
2019-05-07T18:33:52.358Z,7.63
2019-05-07T18:36:22.677Z,12.60
2019-05-07T18:38:52.880Z,12.67
2019-05-07T18:41:22.457Z,12.63
2019-05-07T18:43:54.492Z,10.80
2019-05-07T18:46:22.858Z,10.63
2019-05-07T18:48:52.117Z,10.37
2019-05-07T18:51:21.397Z,10.50
2019-05-07T18:53:51.969Z,12.00
2019-05-07T18:56:22.134Z,13.03
2019-05-07T18:58:52.140Z,10.27
2019-05-07T19:01:22.791Z,10.87
2019-05-07T19:03:52.617Z,9.97
2019-05-07T19:06:22.369Z,10.50
2019-05-07T19:08:52.666Z,11.80
2019-05-07T19:11:22.822Z,11.47
2019-05-07T19:13:52.825Z,11.93
2019-05-07T19:16:23.482Z,11.77
2019-05-07T19:18:52.858Z,12.83
2019-05-07T19:21:22.491Z,11.73
2019-05-07T19:23:53.006Z,13.37
2019-05-07T19:26:22.500Z,14.20
2019-05-07T19:28:51.807Z,14.07
2019-05-07T19:31:22.051Z,14.37
2019-05-07T19:33:52.486Z,14.83
2019-05-07T19:36:22.416Z,14.53
2019-05-07T19:38:52.576Z,14.50
2019-05-07T19:41:22.054Z,13.50
2019-05-07T19:43:52.807Z,14.03
2019-05-07T19:46:22.818Z,14.83
2019-05-07T19:48:52.350Z,15.03
2019-05-07T19:51:21.666Z,14.73
2019-05-07T19:53:52.729Z,15.97
2019-05-07T19:56:23.891Z,16.07
2019-05-07T19:58:53.481Z,16.80
2019-05-07T20:01:34.225Z,17.63
2019-05-07T20:04:03.536Z,19.60
2019-05-07T20:06:32.904Z,19.60
2019-05-07T20:09:09.818Z,17.60
2019-05-07T20:11:45.486Z,18.03
2019-05-07T20:14:14.878Z,17.60
2019-05-07T20:16:44.261Z,17.13
2019-05-07T20:19:13.677Z,16.27
2019-05-07T20:21:42.994Z,18.07
2019-05-07T20:24:12.605Z,16.63
2019-05-07T20:26:42.993Z,17.70
2019-05-07T20:29:12.582Z,19.40
2019-05-07T20:31:42.422Z,20.93
2019-05-07T20:34:13.115Z,22.90
2019-05-07T20:36:42.824Z,22.40
2019-05-07T20:39:12.910Z,22.67
2019-05-07T20:41:42.903Z,24.90
2019-05-07T20:44:12.518Z,21.23
2019-05-07T20:46:42.261Z,24.80
2019-05-07T20:49:13.184Z,25.03
2019-05-07T20:51:42.815Z,26.37
2019-05-07T20:54:43.390Z,25.07
2019-05-07T20:57:22.504Z,25.43
2019-05-07T20:59:51.929Z,25.03
2019-05-07T21:02:22.730Z,22.87
2019-05-07T21:04:52.233Z,24.07
2019-05-07T21:07:22.209Z,25.60
2019-05-07T21:09:53.017Z,26.37
2019-05-07T21:12:22.659Z,27.63
2019-05-07T21:14:52.556Z,27.83
2019-05-07T21:17:22.703Z,25.07
2019-05-07T21:19:52.195Z,25.83
2019-05-07T21:22:22.622Z,26.30
2019-05-07T21:24:53.179Z,24.03
2019-05-07T21:27:22.775Z,23.80
2019-05-07T21:29:52.755Z,24.30
2019-05-07T21:32:23.132Z,23.00
2019-05-07T21:34:52.812Z,21.57
2019-05-07T21:37:22.891Z,19.47
2019-05-07T21:39:53.126Z,20.67
2019-05-07T21:42:22.991Z,21.37
2019-05-07T21:44:52.785Z,19.90
2019-05-07T21:47:22.498Z,20.10
2019-05-07T21:49:54.860Z,19.40
2019-05-07T21:52:23.688Z,19.33
2019-05-07T21:55:02.524Z,18.80
2019-05-07T21:57:49.599Z,18.60
2019-05-07T22:00:25.175Z,19.27
2019-05-07T22:02:54.462Z,20.33
2019-05-07T22:05:23.821Z,20.93
2019-05-07T22:07:54.411Z,20.27
2019-05-07T22:10:23.880Z,20.63
2019-05-07T22:12:54.636Z,20.97
2019-05-07T22:15:24.073Z,25.33
2019-05-07T22:17:53.365Z,28.30
2019-05-07T22:20:22.618Z,28.00
2019-05-07T22:22:52.185Z,28.70
2019-05-07T22:25:22.170Z,28.47
2019-05-07T22:27:52.986Z,27.87
2019-05-07T22:30:28.770Z,25.70
2019-05-07T22:33:09.271Z,24.57
2019-05-07T22:35:40.985Z,22.80
2019-05-07T22:38:12.137Z,22.43
2019-05-07T22:40:43.303Z,21.40
2019-05-07T22:43:13.012Z,22.13
2019-05-07T22:45:42.863Z,22.43
2019-05-07T22:48:12.348Z,22.30
2019-05-07T22:50:42.101Z,21.87
2019-05-07T22:53:12.702Z,21.57
2019-05-07T22:55:41.968Z,20.40
2019-05-07T22:58:18.354Z,21.50
2019-05-07T23:00:51.598Z,21.40
2019-05-07T23:03:22.882Z,21.63
2019-05-07T23:05:53.434Z,20.80
2019-05-07T23:08:22.686Z,21.47
2019-05-07T23:10:52.576Z,21.77
2019-05-07T23:13:22.607Z,21.17
2019-05-07T23:15:53.869Z,21.70
2019-05-07T23:18:23.313Z,20.57
2019-05-07T23:20:52.808Z,22.73
2019-05-07T23:23:22.183Z,24.07
2019-05-07T23:25:52.400Z,25.83
2019-05-07T23:28:22.963Z,26.37
2019-05-07T23:30:52.518Z,29.37
2019-05-07T23:33:22.644Z,29.97
2019-05-07T23:35:52.852Z,28.83
2019-05-07T23:38:22.527Z,28.07
2019-05-07T23:41:26.206Z,28.83
2019-05-07T23:44:12.431Z,30.60
2019-05-07T23:46:42.595Z,29.10
2019-05-07T23:49:13.039Z,28.93
2019-05-07T23:51:42.365Z,28.57
2019-05-07T23:54:12.293Z,28.20
2019-05-07T23:56:42.725Z,25.30
2019-05-07T23:59:14.771Z,25.80
